createdAt,value
2023-01-11T00:02:53.333Z,9.40
2023-01-11T00:09:01.732Z,9.50
2023-01-11T00:11:38.607Z,9.50
2023-01-11T00:14:08.638Z,9.60
2023-01-11T00:16:42.867Z,9.60
2023-01-11T00:19:16.011Z,9.60
2023-01-11T00:21:52.372Z,9.70
2023-01-11T00:27:05.787Z,9.70
2023-01-11T00:30:01.705Z,9.70
2023-01-11T00:32:31.649Z,9.70
2023-01-11T00:35:22.687Z,9.70
2023-01-11T00:40:52.738Z,9.70
2023-01-11T00:52:14.937Z,9.80
2023-01-11T02:21:13.193Z,10.30
2023-01-11T02:27:15.870Z,10.30
2023-01-11T02:29:57.391Z,10.30
2023-01-11T02:33:02.066Z,10.30
2023-01-11T03:07:32.570Z,10.40
2023-01-11T04:39:27.530Z,10.50
2023-01-11T04:41:54.306Z,10.50
2023-01-11T04:45:08.254Z,10.50
2023-01-11T04:47:36.321Z,10.50
2023-01-11T04:50:07.224Z,10.50
2023-01-11T04:52:42.518Z,10.50
2023-01-11T04:55:22.769Z,10.50
2023-01-11T04:58:08.223Z,10.50
2023-01-11T05:00:38.452Z,10.50
2023-01-11T05:03:19.482Z,10.50
2023-01-11T05:16:52.247Z,10.40
2023-01-11T05:29:46.795Z,10.30
2023-01-11T05:44:13.437Z,10.10
2023-01-11T05:46:42.488Z,10.10
2023-01-11T05:49:14.956Z,10.10
2023-01-11T06:03:42.762Z,9.90
2023-01-11T06:06:48.028Z,9.90
2023-01-11T06:12:11.593Z,9.80
2023-01-11T06:14:43.898Z,9.80
2023-01-11T06:17:41.126Z,9.80
2023-01-11T06:28:37.789Z,9.70
2023-01-11T06:34:30.179Z,9.70
2023-01-11T06:37:21.053Z,9.60
2023-01-11T06:43:12.545Z,9.50
2023-01-11T06:46:36.243Z,9.50
2023-01-11T06:49:23.039Z,9.40
2023-01-11T06:52:35.863Z,9.30
2023-01-11T06:58:19.979Z,9.30
2023-01-11T07:49:56.678Z,9.00
2023-01-11T08:31:09.684Z,8.30
2023-01-11T08:33:50.069Z,8.30
2023-01-11T08:36:26.367Z,8.20
2023-01-11T08:39:02.129Z,8.20
2023-01-11T08:41:49.839Z,8.10
2023-01-11T08:44:33.291Z,8.10
2023-01-11T08:47:00.726Z,8.10
2023-01-11T08:49:39.515Z,8.00
2023-01-11T08:52:13.261Z,8.00
2023-01-11T08:54:41.252Z,8.00
2023-01-11T08:57:07.989Z,7.90
2023-01-11T08:59:34.636Z,7.90
2023-01-11T09:02:05.530Z,8.00
2023-01-11T09:04:32.290Z,7.90
2023-01-11T09:06:59.131Z,7.90
2023-01-11T09:09:38.097Z,8.00
2023-01-11T09:12:14.318Z,8.00
2023-01-11T09:20:17.796Z,8.10
2023-01-11T09:22:56.612Z,8.10
2023-01-11T09:25:35.992Z,8.20
2023-01-11T09:28:03.360Z,8.20
2023-01-11T09:30:35.880Z,8.30
2023-01-11T09:33:11.511Z,8.30
2023-01-11T09:35:38.187Z,8.40
2023-01-11T09:38:13.948Z,8.50
2023-01-11T09:40:58.789Z,8.60
2023-01-11T09:43:27.028Z,8.70
2023-01-11T09:46:01.409Z,8.80
2023-01-11T09:48:31.001Z,8.80
2023-01-11T09:50:57.975Z,8.80
2023-01-11T09:53:37.246Z,8.80
2023-01-11T09:56:10.063Z,8.80
2023-01-11T09:58:54.369Z,8.80
2023-01-11T10:01:45.883Z,8.70
2023-01-11T10:04:34.630Z,8.80
2023-01-11T10:07:38.735Z,8.80
2023-01-11T10:18:30.559Z,8.90
2023-01-11T10:20:24.564Z,8.90
2023-01-11T10:23:01.134Z,9.00
2023-01-11T10:25:28.127Z,9.00
2023-01-11T10:28:06.850Z,9.00
2023-01-11T10:30:52.912Z,9.10
2023-01-11T10:33:50.948Z,9.10
2023-01-11T10:36:56.112Z,9.10
2023-01-11T10:42:10.649Z,9.20
2023-01-11T10:45:12.700Z,9.20
2023-01-11T10:51:21.756Z,9.40
2023-01-11T10:54:12.933Z,9.50
2023-01-11T10:57:09.984Z,9.60
2023-01-11T11:07:24.436Z,10.00
2023-01-11T11:10:19.377Z,10.10
2023-01-11T11:13:13.777Z,10.10
2023-01-11T11:18:59.272Z,10.20
2023-01-11T11:21:30.724Z,10.10
2023-01-11T11:24:26.233Z,10.10
2023-01-11T11:30:10.173Z,10.20
2023-01-11T11:32:46.832Z,10.00
2023-01-11T11:35:40.604Z,10.00
2023-01-11T11:38:18.161Z,9.90
2023-01-11T11:41:08.859Z,9.90
2023-01-11T11:43:47.496Z,9.90
2023-01-11T11:46:27.171Z,9.90
2023-01-11T11:49:34.732Z,10.00
2023-01-11T11:52:17.121Z,10.10
2023-01-11T11:54:58.653Z,10.00
2023-01-11T11:57:34.633Z,10.00
2023-01-11T12:03:28.369Z,10.00
2023-01-11T12:06:06.255Z,10.00
2023-01-11T12:08:52.437Z,10.00
2023-01-11T12:12:00.711Z,9.90
2023-01-11T12:21:29.374Z,10.10
2023-01-11T12:24:18.171Z,10.00
2023-01-11T12:30:44.084Z,10.00
2023-01-11T12:36:40.827Z,9.90
2023-01-11T12:43:05.391Z,9.80
2023-01-11T12:46:17.304Z,9.80
2023-01-11T12:48:49.978Z,9.70
2023-01-11T12:51:35.155Z,9.80
2023-01-11T12:54:28.729Z,9.80
2023-01-11T12:57:17.952Z,9.80
2023-01-11T13:00:11.789Z,9.90
2023-01-11T13:06:35.998Z,9.90
2023-01-11T13:09:41.225Z,9.80
2023-01-11T13:12:41.868Z,9.70
2023-01-11T13:19:07.065Z,9.70
2023-01-11T13:21:46.053Z,9.80
2023-01-11T13:24:24.687Z,9.90
2023-01-11T13:30:17.515Z,9.90
2023-01-11T13:36:49.961Z,10.10
2023-01-11T13:49:54.113Z,9.80
2023-01-11T13:53:03.474Z,9.70
2023-01-11T13:55:47.817Z,9.70
2023-01-11T14:02:05.131Z,9.50
2023-01-11T14:11:40.633Z,9.40
2023-01-11T14:14:46.618Z,9.40
2023-01-11T14:17:52.563Z,9.40
2023-01-11T14:20:36.974Z,9.40
2023-01-11T14:23:37.703Z,9.50
2023-01-11T14:26:35.766Z,9.40
2023-01-11T14:29:31.651Z,9.40
2023-01-11T14:32:31.577Z,9.40
2023-01-11T14:39:00.173Z,9.30
2023-01-11T14:41:35.619Z,9.30
2023-01-11T14:44:51.832Z,9.30
2023-01-11T14:47:55.981Z,9.20
2023-01-11T14:50:47.482Z,9.10
2023-01-11T14:53:22.902Z,9.10
2023-01-11T14:55:58.701Z,9.10
2023-01-11T14:58:30.990Z,9.00
2023-01-11T15:00:57.633Z,9.00
2023-01-11T15:03:29.807Z,8.90
2023-01-11T15:06:02.847Z,8.90
2023-01-11T15:08:51.072Z,8.90
2023-01-11T15:11:37.867Z,8.90
2023-01-11T15:14:30.897Z,8.90
2023-01-11T15:17:00.818Z,8.90
2023-01-11T15:19:36.871Z,8.90
2023-01-11T15:22:10.523Z,9.00
2023-01-11T15:24:42.976Z,9.00
2023-01-11T15:27:26.004Z,9.00
2023-01-11T15:29:57.657Z,8.90
2023-01-11T15:32:36.606Z,8.90
2023-01-11T15:43:20.975Z,8.70
2023-01-11T15:49:13.909Z,8.60
2023-01-11T15:51:52.174Z,8.60
2023-01-11T15:54:37.456Z,8.50
2023-01-11T15:57:26.306Z,8.50
2023-01-11T16:00:11.667Z,8.50
2023-01-11T16:03:17.389Z,8.50
2023-01-11T16:06:02.762Z,8.40
2023-01-11T16:08:32.868Z,8.40
2023-01-11T16:11:05.662Z,8.40
2023-01-11T16:13:54.404Z,8.40
2023-01-11T16:16:28.724Z,8.40
2023-01-11T16:19:08.774Z,8.40
2023-01-11T16:21:41.050Z,8.30
2023-01-11T16:24:10.841Z,8.30
2023-01-11T16:26:40.208Z,8.30
2023-01-11T16:29:30.284Z,8.30
2023-01-11T16:32:03.130Z,8.30
2023-01-11T16:34:40.408Z,8.30
2023-01-11T16:37:42.474Z,8.30
2023-01-11T16:40:30.196Z,8.40
2023-01-11T16:43:08.393Z,8.40
2023-01-11T16:45:43.765Z,8.50
2023-01-11T16:48:27.184Z,8.50
2023-01-11T16:51:02.081Z,8.50
2023-01-11T16:53:30.484Z,8.50
2023-01-11T16:56:16.670Z,8.50
2023-01-11T16:58:43.528Z,8.50
2023-01-11T17:01:14.715Z,8.60
2023-01-11T17:03:51.636Z,8.50
2023-01-11T17:06:24.528Z,8.50
2023-01-11T17:08:53.462Z,8.50
2023-01-11T17:11:45.975Z,8.60
2023-01-11T17:14:37.957Z,8.60
2023-01-11T17:17:09.157Z,8.60
2023-01-11T17:19:41.836Z,8.60
2023-01-11T17:22:31.745Z,8.60
2023-01-11T17:25:11.922Z,8.60
2023-01-11T17:27:41.130Z,8.60
2023-01-11T17:30:19.608Z,8.60
2023-01-11T17:32:49.639Z,8.60
2023-01-11T17:35:17.474Z,8.60
2023-01-11T17:37:57.813Z,8.60
2023-01-11T17:43:37.595Z,8.60
2023-01-11T17:46:05.560Z,8.50
2023-01-11T17:48:40.099Z,8.50
2023-01-11T17:51:07.638Z,8.50
2023-01-11T17:53:51.425Z,8.50
2023-01-11T17:56:37.990Z,8.50
2023-01-11T18:02:04.017Z,8.50
2023-01-11T18:08:37.645Z,8.50
2023-01-11T18:21:58.011Z,8.30
2023-01-11T18:24:38.078Z,8.30
2023-01-11T20:35:30.232Z,7.80
2023-01-11T20:38:13.449Z,7.80
2023-01-11T20:43:30.603Z,7.80
2023-01-11T20:50:10.724Z,7.80
2023-01-11T21:54:55.958Z,8.10
2023-01-11T22:04:25.109Z,8.20
2023-01-11T22:06:51.907Z,8.20
2023-01-11T22:09:20.109Z,8.20
2023-01-11T22:11:47.226Z,8.20
2023-01-11T22:14:13.957Z,8.20
2023-01-11T22:16:40.650Z,8.20
2023-01-11T22:19:15.838Z,8.20
2023-01-11T22:24:41.141Z,8.10
2023-01-11T22:30:26.921Z,8.10
2023-01-11T22:36:17.060Z,8.10
2023-01-11T22:38:43.875Z,8.10
2023-01-11T22:41:22.764Z,8.10
2023-01-11T22:43:49.723Z,8.10
2023-01-11T22:49:46.568Z,8.10
2023-01-11T23:24:24.318Z,8.20
2023-01-11T23:26:51.142Z,8.20
2023-01-11T23:29:24.162Z,8.20
2023-01-11T23:32:03.577Z,8.20
2023-01-11T23:34:39.553Z,8.20
2023-01-11T23:37:09.353Z,8.20
2023-01-11T23:39:46.835Z,8.20
2023-01-11T23:45:31.797Z,8.30
2023-01-11T23:51:13.430Z,8.30
2023-01-11T23:57:10.559Z,8.30
2023-01-11T23:59:49.092Z,8.30
